createdAt,value
2023-04-30T00:02:08.620Z,98948.80
2023-04-30T00:04:37.743Z,98950.27
2023-04-30T00:07:11.463Z,98951.85
2023-04-30T00:09:37.933Z,98951.16
2023-04-30T00:12:07.035Z,98953.15
2023-04-30T00:14:35.902Z,98956.65
2023-04-30T00:17:05.237Z,98957.23
2023-04-30T00:19:32.176Z,98957.34
2023-04-30T00:22:00.960Z,98955.83
2023-04-30T00:24:28.001Z,98957.71
2023-04-30T00:26:54.465Z,98962.14
2023-04-30T00:29:23.566Z,98963.73
2023-04-30T00:31:50.381Z,98964.52
2023-04-30T00:34:17.199Z,98969.02
2023-04-30T00:36:46.424Z,98969.56
2023-04-30T00:39:16.056Z,98976.98
2023-04-30T00:41:45.438Z,98983.20
2023-04-30T00:44:12.377Z,98999.46
2023-04-30T00:46:39.100Z,99018.02
2023-04-30T00:49:05.971Z,99028.27
2023-04-30T00:51:36.427Z,99042.03
2023-04-30T00:54:07.644Z,99060.80
2023-04-30T00:56:34.583Z,99073.37
2023-04-30T00:59:01.713Z,99088.94
2023-04-30T01:01:31.225Z,99103.63
2023-04-30T01:03:58.237Z,99110.02
2023-04-30T01:06:28.313Z,99115.62
2023-04-30T01:08:56.642Z,99123.95
2023-04-30T02:41:54.726Z,99413.23
2023-04-30T02:44:24.524Z,99416.11
2023-04-30T02:46:51.349Z,99415.48
2023-04-30T02:49:20.442Z,99413.45
2023-04-30T02:51:49.400Z,99420.56
2023-04-30T02:54:18.785Z,99425.73
2023-04-30T02:56:46.554Z,99427.05
2023-04-30T02:59:13.420Z,99432.61
2023-04-30T03:01:40.288Z,99435.27
2023-04-30T03:04:12.031Z,99437.38
2023-04-30T03:06:39.293Z,99439.51
2023-04-30T03:09:06.485Z,99444.23
2023-04-30T03:11:36.827Z,99450.16
2023-04-30T03:14:06.346Z,99455.84
2023-04-30T03:16:32.895Z,99463.09
2023-04-30T03:18:59.795Z,99470.58
2023-04-30T03:21:26.266Z,99475.81
2023-04-30T03:23:55.202Z,99480.77
2023-04-30T03:26:24.231Z,99483.00
2023-04-30T03:28:50.861Z,99491.52
2023-04-30T03:31:19.933Z,99494.77
2023-04-30T03:33:46.482Z,99497.89
2023-04-30T03:36:13.037Z,99499.55
2023-04-30T03:38:42.329Z,99505.53
2023-04-30T03:41:09.152Z,99505.83
2023-04-30T03:43:38.973Z,99508.52
2023-04-30T03:46:05.677Z,99516.36
2023-04-30T03:48:32.235Z,99523.30
2023-04-30T03:51:04.070Z,99531.95
2023-04-30T03:53:32.873Z,99539.64
2023-04-30T03:55:59.715Z,99543.16
2023-04-30T03:58:30.077Z,99547.77
2023-04-30T04:00:56.861Z,99555.38
2023-04-30T04:03:26.808Z,99566.42
2023-04-30T04:05:53.484Z,99568.39
2023-04-30T04:08:21.196Z,99577.27
2023-04-30T04:10:52.790Z,99585.63
2023-04-30T04:13:21.954Z,99592.28
2023-04-30T04:15:51.734Z,99602.73
2023-04-30T04:18:18.393Z,99610.23
2023-04-30T04:20:47.262Z,99620.23
2023-04-30T04:23:14.095Z,99621.64
2023-04-30T04:25:43.917Z,99622.97
2023-04-30T04:28:10.926Z,99625.39
2023-04-30T04:30:39.418Z,99631.14
2023-04-30T04:33:08.654Z,99638.52
2023-04-30T04:35:38.404Z,99644.09
2023-04-30T04:38:05.858Z,99651.90
2023-04-30T04:40:32.795Z,99659.33
2023-04-30T04:42:59.775Z,99670.25
2023-04-30T04:45:26.610Z,99678.73
2023-04-30T04:47:53.702Z,99682.36
2023-04-30T04:50:25.708Z,99685.86
2023-04-30T04:52:54.919Z,99689.64
2023-04-30T04:55:32.587Z,99695.54
2023-04-30T04:58:02.527Z,99708.84
2023-04-30T05:00:30.902Z,99710.84
2023-04-30T05:03:04.309Z,99715.95
2023-04-30T05:05:36.504Z,99722.96
2023-04-30T05:08:03.360Z,99728.38
2023-04-30T05:10:30.728Z,99726.73
2023-04-30T05:12:59.806Z,99734.20
2023-04-30T05:15:26.673Z,99740.69
2023-04-30T05:17:55.691Z,99740.60
2023-04-30T05:20:24.992Z,99741.35
2023-04-30T05:22:51.457Z,99751.02
2023-04-30T05:25:20.328Z,99756.21
2023-04-30T05:27:49.190Z,99765.79
2023-04-30T05:30:18.577Z,99763.63
2023-04-30T05:32:50.057Z,99768.84
2023-04-30T05:35:19.844Z,99766.97
2023-04-30T05:37:46.520Z,99771.02
2023-04-30T05:40:15.968Z,99776.86
2023-04-30T05:42:45.306Z,99789.54
2023-04-30T05:45:14.022Z,99798.00
2023-04-30T05:47:40.944Z,99804.39
2023-04-30T05:50:11.260Z,99818.45
2023-04-30T05:52:40.523Z,99825.84
2023-04-30T05:55:12.173Z,99833.98
2023-04-30T05:57:44.031Z,99833.89
2023-04-30T06:00:11.859Z,99838.71
2023-04-30T06:02:41.782Z,99847.95
2023-04-30T06:05:08.569Z,99842.09
2023-04-30T06:07:35.669Z,99850.96
2023-04-30T06:10:05.241Z,99856.69
2023-04-30T06:12:34.360Z,99861.84
2023-04-30T06:15:00.874Z,99867.73
2023-04-30T06:17:29.850Z,99871.17
2023-04-30T06:20:01.639Z,99871.39
2023-04-30T06:22:29.938Z,99877.65
2023-04-30T06:24:58.948Z,99878.58
2023-04-30T06:27:31.646Z,99884.63
2023-04-30T06:30:00.738Z,99881.13
2023-04-30T06:32:30.359Z,99876.60
2023-04-30T06:35:00.572Z,99883.57
2023-04-30T06:37:27.403Z,99888.27
2023-04-30T06:39:54.305Z,99885.52
2023-04-30T06:42:21.418Z,99886.77
2023-04-30T06:44:50.604Z,99883.41
2023-04-30T06:47:20.096Z,99888.71
2023-04-30T06:49:48.946Z,99887.23
2023-04-30T06:52:15.373Z,99885.31
2023-04-30T06:54:44.272Z,99888.98
2023-04-30T06:57:12.004Z,99886.77
2023-04-30T06:59:41.083Z,99882.20
2023-04-30T07:02:12.240Z,99880.41
2023-04-30T07:04:38.863Z,99881.73
2023-04-30T07:07:08.246Z,99881.07
2023-04-30T07:09:34.799Z,99884.69
2023-04-30T07:12:03.346Z,99877.14
2023-04-30T07:14:32.629Z,99871.13
2023-04-30T07:16:59.955Z,99855.09
2023-04-30T07:19:26.569Z,99850.77
2023-04-30T07:21:53.342Z,99835.37
2023-04-30T07:24:26.903Z,99843.90
2023-04-30T07:26:56.181Z,99840.38
2023-04-30T07:29:22.788Z,99838.30
2023-04-30T07:31:52.745Z,99837.87
2023-04-30T07:34:21.948Z,99840.10
2023-04-30T07:36:51.097Z,99843.08
2023-04-30T07:39:17.916Z,99841.02
2023-04-30T07:41:44.767Z,99846.16
2023-04-30T07:44:11.731Z,99846.98
2023-04-30T07:46:38.475Z,99847.45
2023-04-30T07:49:10.341Z,99839.27
2023-04-30T07:51:37.195Z,99835.74
2023-04-30T07:54:04.278Z,99843.02
2023-04-30T07:56:31.345Z,99846.14
2023-04-30T07:58:58.071Z,99851.52
2023-04-30T08:01:25.547Z,99852.82
2023-04-30T08:03:52.358Z,99849.28
2023-04-30T08:06:22.192Z,99845.44
2023-04-30T08:08:50.452Z,99854.50
2023-04-30T08:11:17.374Z,99859.37
2023-04-30T08:13:44.000Z,99861.63
2023-04-30T08:16:12.862Z,99855.91
2023-04-30T08:18:43.341Z,99850.57
2023-04-30T08:21:11.248Z,99851.13
2023-04-30T08:23:37.893Z,99843.54
2023-04-30T08:26:04.795Z,99841.79
2023-04-30T08:28:31.514Z,99836.33
2023-04-30T08:30:58.355Z,99845.12
2023-04-30T08:33:25.501Z,99850.64
2023-04-30T08:35:54.460Z,99849.30
2023-04-30T08:38:23.026Z,99847.35
2023-04-30T08:41:02.408Z,99854.91
2023-04-30T08:43:30.253Z,99858.33
2023-04-30T08:45:57.966Z,99864.58
2023-04-30T08:48:27.511Z,99865.83
2023-04-30T08:50:54.309Z,99855.95
2023-04-30T08:53:21.715Z,99864.08
2023-04-30T08:55:53.751Z,99862.61
2023-04-30T08:58:20.622Z,99861.67
2023-04-30T09:00:49.526Z,99859.65
2023-04-30T09:03:16.517Z,99860.46
2023-04-30T09:05:48.767Z,99870.20
2023-04-30T09:08:21.063Z,99870.08
2023-04-30T09:10:47.898Z,99876.06
2023-04-30T09:13:17.141Z,99869.52
2023-04-30T09:15:51.393Z,99862.52
2023-04-30T09:18:23.011Z,99862.70
2023-04-30T09:21:01.393Z,99861.19
2023-04-30T09:23:29.363Z,99867.54
2023-04-30T09:25:56.506Z,99865.52
2023-04-30T09:28:25.846Z,99868.31
2023-04-30T09:30:56.301Z,99871.98
2023-04-30T09:33:30.016Z,99865.87
2023-04-30T09:35:56.896Z,99861.67
2023-04-30T09:38:34.714Z,99856.80
2023-04-30T09:41:04.073Z,99858.23
2023-04-30T09:43:33.399Z,99864.27
2023-04-30T09:46:03.035Z,99858.77
2023-04-30T09:48:32.332Z,99862.51
2023-04-30T09:51:02.841Z,99865.75
2023-04-30T09:53:32.857Z,99856.00
2023-04-30T09:56:02.365Z,99856.68
2023-04-30T09:58:31.944Z,99858.10
2023-04-30T10:01:01.445Z,99855.31
2023-04-30T10:03:30.951Z,99855.58
2023-04-30T10:06:00.458Z,99858.58
2023-04-30T10:08:28.175Z,99860.91
2023-04-30T10:11:04.392Z,99856.26
2023-04-30T10:13:37.217Z,99853.49
2023-04-30T10:16:11.224Z,99852.60
2023-04-30T10:18:40.093Z,99848.78
2023-04-30T10:21:12.967Z,99858.30
2023-04-30T10:23:42.805Z,99856.91
2023-04-30T10:26:12.640Z,99861.44
2023-04-30T10:28:43.406Z,99854.78
2023-04-30T10:31:13.762Z,99855.67
2023-04-30T10:33:59.759Z,99849.36
2023-04-30T10:36:35.889Z,99852.23
2023-04-30T10:39:03.025Z,99851.38
2023-04-30T10:41:30.801Z,99849.54
2023-04-30T10:44:06.855Z,99847.38
2023-04-30T10:46:37.093Z,99848.65
2023-04-30T10:49:07.081Z,99854.50
2023-04-30T10:51:51.266Z,99849.89
2023-04-30T10:54:34.084Z,99852.70
2023-04-30T10:57:13.515Z,99838.31
2023-04-30T10:59:47.719Z,99844.39
2023-04-30T11:02:19.665Z,99851.15
2023-04-30T11:05:08.232Z,99852.02
2023-04-30T11:07:46.328Z,99853.42
2023-04-30T11:10:13.893Z,99847.88
2023-04-30T11:12:47.509Z,99860.40
2023-04-30T11:15:19.801Z,99858.04
2023-04-30T11:17:56.504Z,99854.65
2023-04-30T11:20:24.942Z,99853.86
2023-04-30T11:23:25.337Z,99854.67
2023-04-30T11:26:08.011Z,99851.95
2023-04-30T11:28:39.041Z,99857.23
2023-04-30T11:31:08.214Z,99855.83
2023-04-30T11:33:35.338Z,99853.32
2023-04-30T11:36:02.073Z,99857.42
2023-04-30T11:38:36.408Z,99855.57
2023-04-30T11:41:04.456Z,99858.35
2023-04-30T11:43:31.946Z,99864.80
2023-04-30T11:46:11.805Z,99871.35
2023-04-30T11:48:43.915Z,99868.95
2023-04-30T11:51:19.881Z,99861.79
2023-04-30T11:53:50.146Z,99863.84
2023-04-30T11:56:30.140Z,99858.67
2023-04-30T11:58:59.281Z,99859.89
2023-04-30T12:01:29.266Z,99857.55
2023-04-30T12:03:56.723Z,99856.13
2023-04-30T12:06:26.736Z,99866.83
2023-04-30T12:09:06.469Z,99871.02
2023-04-30T12:11:34.219Z,99865.20
2023-04-30T12:14:03.129Z,99856.94
2023-04-30T12:16:39.036Z,99855.70
2023-04-30T12:19:09.002Z,99856.05
2023-04-30T12:21:36.014Z,99853.62
2023-04-30T12:24:04.855Z,99852.48
2023-04-30T12:26:40.523Z,99861.31
2023-04-30T12:29:15.644Z,99861.48
2023-04-30T12:31:48.410Z,99854.70
2023-04-30T12:34:15.508Z,99858.54
2023-04-30T12:36:44.860Z,99856.64
2023-04-30T12:39:15.302Z,99861.17
2023-04-30T12:41:49.022Z,99856.84
2023-04-30T12:44:23.841Z,99851.83
2023-04-30T12:46:56.593Z,99860.02
2023-04-30T12:49:24.586Z,99852.31
2023-04-30T12:51:51.387Z,99856.85
2023-04-30T12:54:28.393Z,99856.36
2023-04-30T12:57:00.697Z,99858.35
2023-04-30T12:59:35.218Z,99854.64
2023-04-30T13:02:06.100Z,99844.50
2023-04-30T13:04:35.512Z,99844.52
2023-04-30T13:07:05.039Z,99852.85
2023-04-30T15:06:57.634Z,99848.97
2023-04-30T15:09:24.275Z,99854.44
2023-04-30T15:11:50.757Z,99855.34
2023-04-30T15:14:19.535Z,99855.38
2023-04-30T15:16:48.589Z,99858.19
2023-04-30T15:19:17.496Z,99856.83
2023-04-30T15:21:43.954Z,99856.28
2023-04-30T15:24:13.213Z,99853.27
2023-04-30T15:26:44.825Z,99858.08
2023-04-30T15:29:14.038Z,99853.94
2023-04-30T15:31:40.672Z,99856.02
2023-04-30T15:34:11.787Z,99856.27
2023-04-30T15:36:40.775Z,99858.01
2023-04-30T15:39:07.278Z,99861.23
2023-04-30T15:41:38.709Z,99865.00
2023-04-30T15:44:05.307Z,99866.23
2023-04-30T15:46:36.738Z,99862.78
2023-04-30T15:49:10.906Z,99865.28
2023-04-30T15:51:38.047Z,99864.58
2023-04-30T15:54:06.874Z,99868.20
2023-04-30T15:56:35.309Z,99872.73
2023-04-30T15:59:02.194Z,99872.70
2023-04-30T16:01:28.743Z,99868.13
2023-04-30T16:03:55.868Z,99867.38
2023-04-30T16:06:25.535Z,99862.30
2023-04-30T16:08:53.128Z,99860.63
2023-04-30T16:11:23.400Z,99860.63
2023-04-30T16:13:53.794Z,99865.65
2023-04-30T16:16:20.378Z,99866.33
2023-04-30T16:18:47.158Z,99868.76
2023-04-30T16:21:13.795Z,99868.13
2023-04-30T16:23:43.067Z,99867.94
2023-04-30T16:26:10.099Z,99866.18
2023-04-30T16:28:38.865Z,99862.77
2023-04-30T16:31:05.618Z,99867.97
2023-04-30T16:33:34.662Z,99863.59
2023-04-30T16:36:01.562Z,99867.11
2023-04-30T16:38:30.444Z,99864.63
2023-04-30T16:40:57.449Z,99863.09
2023-04-30T16:43:24.412Z,99864.94
2023-04-30T16:45:52.153Z,99864.52
2023-04-30T16:48:18.714Z,99866.73
2023-04-30T16:50:50.179Z,99877.88
2023-04-30T16:53:21.622Z,99870.80
2023-04-30T16:55:51.843Z,99874.36
2023-04-30T16:58:20.631Z,99871.90
2023-04-30T17:00:49.260Z,99871.39
2023-04-30T17:03:18.476Z,99870.99
2023-04-30T17:05:50.296Z,99877.85
2023-04-30T17:08:16.786Z,99877.67
2023-04-30T17:10:46.907Z,99882.18
2023-04-30T17:13:15.932Z,99882.96
2023-04-30T17:15:42.772Z,99885.98
2023-04-30T17:18:12.320Z,99881.39
2023-04-30T17:20:41.460Z,99886.76
2023-04-30T17:23:07.999Z,99894.14
2023-04-30T17:25:40.180Z,99892.09
2023-04-30T17:28:09.026Z,99895.73
2023-04-30T17:30:35.726Z,99894.67
2023-04-30T17:33:03.805Z,99899.55
2023-04-30T17:35:33.277Z,99903.75
2023-04-30T17:38:02.327Z,99907.59
2023-04-30T17:40:30.745Z,99908.98
2023-04-30T17:42:59.928Z,99905.92
2023-04-30T17:45:27.215Z,99910.05
2023-04-30T17:47:54.560Z,99916.41
2023-04-30T17:50:21.580Z,99919.33
2023-04-30T17:52:52.594Z,99928.16
2023-04-30T17:55:23.106Z,99924.77
2023-04-30T17:57:50.097Z,99927.27
2023-04-30T18:00:17.648Z,99925.81
2023-04-30T18:02:45.229Z,99933.41
2023-04-30T18:05:12.002Z,99935.45
2023-04-30T18:07:43.526Z,99936.44
2023-04-30T18:10:19.392Z,99937.48
2023-04-30T18:12:46.440Z,99936.54
2023-04-30T18:15:14.477Z,99940.27
2023-04-30T18:17:41.689Z,99945.34
2023-04-30T18:20:08.783Z,99948.30
2023-04-30T18:22:42.517Z,99949.41
2023-04-30T18:25:10.567Z,99956.73
2023-04-30T18:27:40.325Z,99958.19
2023-04-30T18:30:12.198Z,99963.27
2023-04-30T18:32:40.964Z,99962.66
2023-04-30T18:35:08.287Z,99966.08
2023-04-30T18:37:35.050Z,99973.13
2023-04-30T18:40:10.066Z,99982.48
2023-04-30T18:42:37.843Z,99982.10
2023-04-30T18:45:08.892Z,99986.00
2023-04-30T18:47:39.710Z,99995.34
2023-04-30T18:50:22.548Z,99992.23
2023-04-30T18:52:58.589Z,100003.03
2023-04-30T18:55:25.393Z,100006.66
2023-04-30T18:57:52.225Z,100001.30
2023-04-30T19:00:18.956Z,100008.14
2023-04-30T19:02:45.740Z,100009.59
2023-04-30T19:05:15.124Z,100013.32
2023-04-30T19:07:46.049Z,100020.40
2023-04-30T19:10:12.568Z,100022.46
2023-04-30T19:12:39.922Z,100025.91
2023-04-30T19:15:07.429Z,100036.98
2023-04-30T19:17:34.544Z,100031.10
2023-04-30T19:20:06.892Z,100028.00
2023-04-30T19:22:35.265Z,100036.77
2023-04-30T19:25:02.081Z,100036.88
2023-04-30T19:27:33.819Z,100039.65
2023-04-30T19:30:03.324Z,100038.30
2023-04-30T19:32:30.246Z,100046.98
2023-04-30T19:35:01.291Z,100041.36
2023-04-30T19:37:28.129Z,100038.03
2023-04-30T19:39:56.828Z,100039.41
2023-04-30T19:42:26.116Z,100040.16
2023-04-30T19:44:57.416Z,100044.78
2023-04-30T19:47:25.357Z,100041.85
2023-04-30T19:49:52.792Z,100042.70
2023-04-30T19:52:19.964Z,100056.13
2023-04-30T19:54:49.365Z,100057.20
2023-04-30T19:57:21.214Z,100057.08
2023-04-30T19:59:47.801Z,100053.39
2023-04-30T20:02:14.472Z,100060.59
2023-04-30T20:04:43.704Z,100062.27
2023-04-30T20:07:10.192Z,100067.94
2023-04-30T20:09:40.210Z,100063.54
2023-04-30T20:12:09.310Z,100068.52
2023-04-30T20:14:41.290Z,100073.63
2023-04-30T20:17:08.233Z,100072.63
2023-04-30T20:19:34.978Z,100073.85
2023-04-30T20:22:12.309Z,100078.19
2023-04-30T20:24:45.199Z,100086.65
2023-04-30T20:27:13.968Z,100085.24
2023-04-30T20:29:45.172Z,100087.59
2023-04-30T20:32:11.754Z,100091.16
2023-04-30T20:34:41.027Z,100094.91
2023-04-30T20:37:09.743Z,100099.69
2023-04-30T20:39:42.306Z,100102.89
2023-04-30T20:42:13.519Z,100106.59
2023-04-30T20:44:40.010Z,100113.17
2023-04-30T20:47:08.247Z,100108.44
2023-04-30T20:49:37.033Z,100115.14
2023-04-30T20:52:04.393Z,100119.16
2023-04-30T20:54:31.204Z,100125.17
2023-04-30T20:56:57.749Z,100121.03
2023-04-30T20:59:24.294Z,100111.34
2023-04-30T21:01:51.241Z,100109.30
2023-04-30T21:04:18.217Z,100118.61
2023-04-30T21:06:45.141Z,100120.23
2023-04-30T21:09:14.060Z,100130.91
2023-04-30T21:11:41.568Z,100133.17
2023-04-30T21:14:08.741Z,100138.95
2023-04-30T21:16:35.614Z,100142.64
2023-04-30T21:19:02.823Z,100145.54
2023-04-30T21:21:29.550Z,100155.29
2023-04-30T21:24:01.621Z,100160.58
2023-04-30T21:26:30.742Z,100160.05
2023-04-30T21:28:59.582Z,100162.46
2023-04-30T21:31:27.200Z,100167.42
2023-04-30T21:33:56.466Z,100171.76
2023-04-30T21:36:29.385Z,100173.91
2023-04-30T21:38:58.746Z,100179.57
2023-04-30T21:41:27.245Z,100184.65
2023-04-30T21:43:56.566Z,100176.41
2023-04-30T21:46:23.579Z,100179.96
2023-04-30T21:48:53.091Z,100187.64
2023-04-30T21:51:21.813Z,100194.41
2023-04-30T21:53:50.275Z,100199.33
2023-04-30T21:56:21.605Z,100194.30
2023-04-30T21:58:48.374Z,100191.65
2023-04-30T22:01:17.588Z,100198.92
2023-04-30T22:03:46.907Z,100207.20
2023-04-30T22:06:13.523Z,100214.63
2023-04-30T22:08:40.458Z,100219.58
2023-04-30T22:11:09.759Z,100219.54
2023-04-30T22:13:36.463Z,100219.24
2023-04-30T22:16:05.598Z,100223.70
2023-04-30T22:18:39.550Z,100232.60
2023-04-30T22:21:13.459Z,100240.09
2023-04-30T22:23:40.003Z,100237.91
2023-04-30T22:26:10.677Z,100246.11
2023-04-30T22:28:41.940Z,100244.78
2023-04-30T22:31:13.627Z,100251.24
2023-04-30T22:33:43.915Z,100254.56
2023-04-30T22:36:15.404Z,100250.27
2023-04-30T22:38:41.968Z,100252.53
2023-04-30T22:41:13.498Z,100256.36
2023-04-30T22:43:40.577Z,100258.05
2023-04-30T22:46:10.051Z,100255.58
2023-04-30T22:48:39.271Z,100253.38
2023-04-30T22:51:13.390Z,100257.85
2023-04-30T22:53:39.846Z,100261.70
2023-04-30T22:56:06.498Z,100272.98
2023-04-30T22:58:32.886Z,100266.82
2023-04-30T23:01:01.820Z,100275.24
2023-04-30T23:03:28.256Z,100272.02
2023-04-30T23:05:57.762Z,100272.98
2023-04-30T23:08:24.214Z,100277.45
2023-04-30T23:10:54.843Z,100279.14
2023-04-30T23:13:22.211Z,100280.98
2023-04-30T23:15:49.009Z,100264.58
2023-04-30T23:18:15.553Z,100262.75
2023-04-30T23:20:44.514Z,100272.21
2023-04-30T23:23:13.894Z,100276.31
2023-04-30T23:25:40.664Z,100278.65
2023-04-30T23:28:09.927Z,100278.78
2023-04-30T23:30:39.459Z,100279.75
2023-04-30T23:33:06.129Z,100280.12
2023-04-30T23:35:32.658Z,100276.80
2023-04-30T23:37:59.127Z,100276.68
2023-04-30T23:40:27.941Z,100280.52
2023-04-30T23:42:56.828Z,100273.61
2023-04-30T23:45:23.518Z,100279.71
2023-04-30T23:47:52.429Z,100279.70
2023-04-30T23:50:18.986Z,100279.80
2023-04-30T23:52:45.561Z,100283.49
2023-04-30T23:55:12.105Z,100283.60
2023-04-30T23:57:41.831Z,100287.22
